Time;durP1;ratioP1;P1;durP2;ratioP2;P2;SDS_P1;SDS_P2;PMS_P1;PMS_P2;Temp;Humidity;BMP_temperature;BMP_pressure;BME280_temperature;BME280_humidity;BME280_pressure;Samples;Min_cycle;Max_cycle;Signal;HPM_P1;HPM_P2
2021/05/04 00:02:20;;;;;;;82.47;75.40;;;17.70;99.90;;;;;;5073018;28;20029;-61
2021/05/04 00:04:48;;;;;;;82.70;75.85;;;17.60;99.90;;;;;;5072933;28;20202;-61
2021/05/04 00:07:15;;;;;;;81.50;74.53;;;17.40;99.90;;;;;;5073001;28;20013;-61
2021/05/04 00:09:43;;;;;;;81.10;74.45;;;17.40;99.90;;;;;;5074917;28;20035;-61
2021/05/04 00:12:10;;;;;;;82.38;75.47;;;17.40;99.90;;;;;;5079536;28;20081;-61
2021/05/04 00:14:39;;;;;;;83.55;76.68;;;17.30;99.90;;;;;;5079806;28;20028;-61
2021/05/04 00:17:06;;;;;;;90.07;82.97;;;17.30;99.90;;;;;;5079850;28;20102;-61
2021/05/04 00:19:34;;;;;;;93.35;85.55;;;17.20;99.90;;;;;;5079883;28;20040;-61
2021/05/04 00:22:01;;;;;;;93.75;85.80;;;17.20;99.90;;;;;;5079688;28;20048;-62
2021/05/04 00:24:29;;;;;;;94.13;85.70;;;17.10;99.90;;;;;;5079610;28;20111;-62
2021/05/04 00:26:57;;;;;;;93.78;85.97;;;17.00;99.90;;;;;;5078155;28;20017;-62
2021/05/04 00:29:24;;;;;;;94.75;86.82;;;17.00;99.90;;;;;;5079819;28;20023;-61
2021/05/04 00:31:51;;;;;;;100.32;92.18;;;17.00;99.90;;;;;;5079450;28;20031;-61
2021/05/04 00:34:19;;;;;;;101.63;93.35;;;16.80;99.90;;;;;;5079477;28;20024;-62
2021/05/04 00:36:46;;;;;;;102.43;94.20;;;16.60;99.90;;;;;;5079400;28;20024;-61
2021/05/04 00:39:13;;;;;;;112.63;103.72;;;16.50;99.90;;;;;;5079687;28;20358;-61
2021/05/04 00:41:40;;;;;;;115.90;106.30;;;16.30;99.90;;;;;;5079296;28;20082;-61
2021/05/04 00:44:08;;;;;;;115.80;106.45;;;16.20;99.90;;;;;;5079339;28;20028;-61
2021/05/04 00:46:35;;;;;;;115.03;105.50;;;16.20;99.90;;;;;;5079287;28;20028;-61
2021/05/04 00:49:03;;;;;;;111.50;102.35;;;16.20;99.90;;;;;;5079427;28;20103;-61
2021/05/04 00:51:30;;;;;;;105.40;96.50;;;16.30;99.90;;;;;;5079222;28;20028;-61
2021/05/04 00:53:58;;;;;;;101.63;93.28;;;16.40;99.90;;;;;;5079211;28;20028;-61
2021/05/04 00:56:26;;;;;;;101.15;92.88;;;16.30;99.90;;;;;;5079196;28;20070;-61
2021/05/04 00:58:55;;;;;;;99.78;91.45;;;16.40;99.90;;;;;;5079237;28;20044;-61
2021/05/04 01:01:23;;;;;;;102.43;93.82;;;16.50;99.90;;;;;;5079039;28;20024;-61
2021/05/04 01:03:51;;;;;;;100.10;91.93;;;16.40;99.90;;;;;;5078799;28;20036;-61
2021/05/04 01:06:19;;;;;;;101.03;92.72;;;16.40;99.90;;;;;;5079028;28;20477;-61
2021/05/04 01:08:46;;;;;;;104.35;95.63;;;16.20;99.90;;;;;;5079054;28;20042;-61
2021/05/04 01:11:13;;;;;;;107.40;98.13;;;16.20;99.90;;;;;;5079106;28;20465;-61
2021/05/04 01:13:41;;;;;;;109.57;99.82;;;16.10;99.90;;;;;;5078949;28;20103;-61
2021/05/04 01:16:08;;;;;;;102.13;92.68;;;16.20;99.90;;;;;;5079079;28;20059;-59
2021/05/04 01:18:35;;;;;;;110.53;101.03;;;16.30;99.90;;;;;;5079130;28;20029;-58
2021/05/04 01:21:03;;;;;;;111.75;102.80;;;16.20;99.90;;;;;;5078076;28;20500;-58
2021/05/04 01:23:30;;;;;;;111.72;102.57;;;16.10;99.90;;;;;;5075633;28;20086;-58
2021/05/04 01:25:58;;;;;;;110.53;101.68;;;16.10;99.90;;;;;;5075712;28;20103;-57
2021/05/04 01:28:25;;;;;;;105.82;97.15;;;16.10;99.90;;;;;;5075729;28;20023;-59
2021/05/04 01:30:52;;;;;;;107.25;98.35;;;16.00;99.90;;;;;;5075650;28;20021;-59
2021/05/04 01:33:20;;;;;;;105.28;96.40;;;16.00;99.90;;;;;;5075612;28;20032;-59
2021/05/04 01:35:47;;;;;;;102.30;93.75;;;16.10;99.90;;;;;;5075615;28;20473;-59
2021/05/04 01:38:15;;;;;;;102.60;94.55;;;16.10;99.90;;;;;;5075591;28;20024;-59
2021/05/04 01:40:43;;;;;;;99.25;90.25;;;16.20;99.90;;;;;;5075293;28;20035;-59
2021/05/04 01:43:10;;;;;;;92.80;85.43;;;16.20;99.90;;;;;;5075361;28;20121;-59
2021/05/04 01:45:37;;;;;;;95.18;88.10;;;16.10;99.90;;;;;;5075282;28;20020;-58
2021/05/04 01:48:05;;;;;;;89.45;82.65;;;16.10;99.90;;;;;;5075588;28;20025;-59
2021/05/04 01:50:33;;;;;;;87.15;79.95;;;16.20;99.90;;;;;;5075338;28;20025;-59
2021/05/04 01:53:00;;;;;;;89.80;82.78;;;16.10;99.90;;;;;;5075369;28;20401;-60
2021/05/04 01:55:27;;;;;;;91.10;84.03;;;16.10;99.90;;;;;;5075039;28;20020;-59
2021/05/04 01:57:55;;;;;;;97.40;89.78;;;15.90;99.90;;;;;;5073920;28;20021;-58
2021/05/04 02:00:22;;;;;;;100.60;92.15;;;15.80;99.90;;;;;;5075068;28;20085;-58
2021/05/04 02:02:50;;;;;;;98.38;90.57;;;15.80;99.90;;;;;;5074916;28;20031;-59
2021/05/04 02:05:17;;;;;;;88.20;81.38;;;15.90;99.90;;;;;;5075074;28;20028;-58
2021/05/04 02:07:44;;;;;;;90.47;82.88;;;15.90;99.90;;;;;;5075197;28;20017;-59
2021/05/04 02:10:12;;;;;;;91.03;83.22;;;16.00;99.90;;;;;;5074912;28;20017;-58
2021/05/04 02:12:43;;;;;;;94.97;87.30;;;16.00;99.90;;;;;;5074998;28;20027;-58
2021/05/04 02:15:12;;;;;;;94.82;87.03;;;16.00;99.90;;;;;;5074801;28;20431;-58
2021/05/04 02:17:39;;;;;;;89.15;81.75;;;16.10;99.90;;;;;;5074789;28;20485;-58
2021/05/04 02:20:07;;;;;;;88.57;81.43;;;16.10;99.90;;;;;;5074842;28;20028;-57
2021/05/04 02:22:35;;;;;;;79.07;73.18;;;16.00;99.90;;;;;;5074765;28;20025;-62
2021/05/04 02:25:06;;;;;;;79.30;72.78;;;15.90;99.90;;;;;;5074649;28;20021;-64
2021/05/04 02:27:37;;;;;;;75.40;69.38;;;15.90;99.90;;;;;;5074777;28;20048;-64
2021/05/04 02:30:07;;;;;;;;;;;15.80;99.90;;;;;;5075337;28;20108;-64
2021/05/04 02:32:38;;;;;;;80.18;73.47;;;15.80;99.90;;;;;;5074186;28;19905;-64
2021/05/04 02:35:07;;;;;;;78.10;71.80;;;15.80;99.90;;;;;;5074661;28;20035;-64
2021/05/04 02:37:34;;;;;;;80.43;73.43;;;15.80;99.90;;;;;;5074579;28;20046;-64
2021/05/04 02:40:02;;;;;;;81.18;74.70;;;15.70;99.90;;;;;;5074478;28;20027;-63
2021/05/04 02:42:30;;;;;;;88.22;80.93;;;15.70;99.90;;;;;;5074255;28;20054;-63
2021/05/04 02:44:57;;;;;;;80.50;73.55;;;15.70;99.90;;;;;;5074202;28;20408;-61
2021/05/04 02:47:24;;;;;;;79.15;72.65;;;15.80;99.90;;;;;;5074366;28;20362;-61
2021/05/04 02:49:52;;;;;;;79.90;73.57;;;15.80;99.90;;;;;;5074205;28;20082;-62
2021/05/04 02:52:19;;;;;;;84.82;77.65;;;15.70;99.90;;;;;;5074445;28;20023;-62
2021/05/04 02:54:47;;;;;;;83.72;76.50;;;15.70;99.90;;;;;;5074167;28;20024;-63
2021/05/04 02:57:16;;;;;;;87.35;80.10;;;15.80;99.90;;;;;;5074151;28;20035;-60
2021/05/04 02:59:44;;;;;;;80.72;74.32;;;15.80;99.90;;;;;;5074294;28;20366;-62
2021/05/04 03:02:12;;;;;;;80.05;73.75;;;15.80;99.90;;;;;;5072811;28;20025;-63
2021/05/04 03:04:42;;;;;;;80.80;74.05;;;16.00;99.90;;;;;;5073856;28;20546;-63
2021/05/04 03:07:10;;;;;;;83.70;77.05;;;16.10;99.90;;;;;;5072744;28;20108;-61
2021/05/04 03:09:38;;;;;;;86.28;78.75;;;16.20;99.90;;;;;;5073888;28;20031;-62
2021/05/04 03:12:06;;;;;;;88.72;81.47;;;16.20;99.90;;;;;;5073781;28;20042;-63
2021/05/04 03:14:34;;;;;;;87.97;80.90;;;16.20;99.90;;;;;;5072591;28;20055;-62
2021/05/04 03:17:01;;;;;;;84.80;77.93;;;16.20;99.90;;;;;;5073705;28;20020;-62
2021/05/04 03:19:30;;;;;;;86.70;79.63;;;16.40;99.90;;;;;;5072450;28;20064;-62
2021/05/04 03:21:58;;;;;;;82.13;74.97;;;16.30;99.90;;;;;;5073867;28;20056;-63
2021/05/04 03:24:25;;;;;;;80.90;74.30;;;16.20;99.90;;;;;;5073561;28;20020;-62
2021/05/04 03:26:53;;;;;;;80.38;73.97;;;16.30;99.90;;;;;;5073709;28;20021;-62
2021/05/04 03:29:21;;;;;;;80.88;74.28;;;16.30;99.90;;;;;;5073451;28;20020;-63
2021/05/04 03:31:48;;;;;;;81.75;75.22;;;16.20;99.90;;;;;;5073540;28;20504;-63
2021/05/04 03:34:16;;;;;;;84.07;77.07;;;16.30;99.90;;;;;;5073492;28;20031;-61
2021/05/04 03:36:43;;;;;;;86.75;79.72;;;16.30;99.90;;;;;;5073568;28;20027;-63
2021/05/04 03:39:19;;;;;;;93.22;85.30;;;16.30;99.90;;;;;;5073356;28;20493;-63
2021/05/04 03:41:46;;;;;;;91.45;83.88;;;16.30;99.90;;;;;;5073144;28;20076;-57
2021/05/04 03:44:14;;;;;;;93.03;85.70;;;16.40;99.90;;;;;;5072399;28;20033;-59
2021/05/04 03:46:41;;;;;;;94.10;86.25;;;16.50;99.90;;;;;;5073017;28;20024;-59
2021/05/04 03:49:08;;;;;;;97.90;89.63;;;16.70;99.90;;;;;;5073120;28;20020;-58
2021/05/04 03:51:36;;;;;;;96.55;88.28;;;16.70;99.90;;;;;;5073120;28;20078;-57
2021/05/04 03:54:04;;;;;;;101.55;93.45;;;16.60;99.90;;;;;;5073113;28;20021;-57
2021/05/04 03:56:31;;;;;;;102.45;93.65;;;16.40;99.90;;;;;;5073280;28;20481;-58
2021/05/04 03:58:59;;;;;;;113.50;104.05;;;16.50;99.90;;;;;;5073061;28;20027;-58
2021/05/04 04:01:32;;;;;;;111.82;102.72;;;16.30;99.90;;;;;;5071928;28;20036;-58
2021/05/04 04:03:59;;;;;;;109.72;100.78;;;16.30;99.90;;;;;;5055472;28;20034;-58
2021/05/04 04:06:27;;;;;;;114.18;104.78;;;16.20;99.90;;;;;;5072878;28;20055;-59
2021/05/04 04:08:54;;;;;;;116.07;106.53;;;16.20;99.90;;;;;;5073003;28;20476;-58
2021/05/04 04:11:21;;;;;;;118.68;108.82;;;16.10;99.90;;;;;;5071665;28;20048;-58
2021/05/04 04:13:49;;;;;;;118.32;107.97;;;16.20;99.90;;;;;;5072892;28;20370;-56
2021/05/04 04:16:16;;;;;;;116.35;106.40;;;16.30;99.90;;;;;;5073030;28;20028;-57
2021/05/04 04:18:46;;;;;;;119.35;108.72;;;16.20;99.90;;;;;;5072970;28;20434;-58
2021/05/04 04:21:13;;;;;;;118.97;108.57;;;16.20;99.90;;;;;;5073114;28;20038;-59
2021/05/04 04:23:41;;;;;;;118.75;108.55;;;16.20;99.90;;;;;;5072730;28;20028;-58
2021/05/04 04:26:08;;;;;;;112.63;103.63;;;16.00;99.90;;;;;;5072720;28;20020;-56
2021/05/04 04:28:35;;;;;;;116.40;106.90;;;15.90;99.90;;;;;;5072819;28;20017;-57
2021/05/04 04:31:03;;;;;;;117.40;107.50;;;15.90;99.90;;;;;;5072925;28;20389;-58
2021/05/04 04:33:30;;;;;;;110.00;100.60;;;15.80;99.90;;;;;;5073051;28;20020;-57
2021/05/04 04:35:57;;;;;;;111.65;101.65;;;15.80;99.90;;;;;;5072825;28;20474;-57
2021/05/04 04:38:24;;;;;;;104.75;96.10;;;15.70;99.90;;;;;;5072799;28;20024;-58
2021/05/04 04:40:52;;;;;;;105.78;96.68;;;15.70;99.90;;;;;;5072601;28;20028;-57
2021/05/04 04:43:20;;;;;;;105.72;96.53;;;15.80;99.90;;;;;;5072464;28;20041;-56
2021/05/04 04:45:47;;;;;;;99.20;90.80;;;15.80;99.90;;;;;;5072598;28;20458;-57
2021/05/04 04:48:14;;;;;;;98.22;89.68;;;15.70;99.90;;;;;;5072481;28;20017;-58
2021/05/04 04:50:42;;;;;;;97.25;88.45;;;15.70;99.90;;;;;;5071254;28;20161;-58
2021/05/04 04:53:09;;;;;;;88.32;80.60;;;15.70;99.90;;;;;;5072663;28;20388;-59
2021/05/04 04:55:36;;;;;;;87.55;80.18;;;15.70;99.90;;;;;;5072888;28;20025;-58
2021/05/04 04:58:04;;;;;;;81.22;74.30;;;15.70;99.90;;;;;;5076327;28;20415;-58
2021/05/04 05:00:31;;;;;;;83.13;75.65;;;15.60;99.90;;;;;;5076075;28;20027;-59
2021/05/04 05:02:58;;;;;;;86.03;78.93;;;15.60;99.90;;;;;;5076137;28;20103;-57
2021/05/04 05:05:26;;;;;;;85.32;77.43;;;15.60;99.90;;;;;;5076070;28;20473;-57
2021/05/04 05:07:53;;;;;;;79.22;72.90;;;15.70;99.90;;;;;;5076092;28;20465;-58
2021/05/04 05:10:20;;;;;;;73.05;67.05;;;15.70;99.90;;;;;;5076012;28;20103;-57
2021/05/04 05:12:48;;;;;;;74.28;68.20;;;15.60;99.90;;;;;;5076076;28;20024;-58
2021/05/04 05:15:15;;;;;;;74.28;68.18;;;15.60;99.90;;;;;;5075818;28;20063;-58
2021/05/04 05:17:43;;;;;;;68.90;63.53;;;15.60;99.90;;;;;;5075905;28;20374;-57
2021/05/04 05:20:11;;;;;;;65.70;60.60;;;15.60;99.90;;;;;;5075925;28;20025;-58
2021/05/04 05:22:38;;;;;;;67.38;61.95;;;15.60;99.90;;;;;;5075791;28;20510;-58
2021/05/04 05:25:06;;;;;;;69.55;64.13;;;15.50;99.90;;;;;;5075941;28;20028;-57
2021/05/04 05:27:34;;;;;;;68.88;63.65;;;15.50;99.90;;;;;;5075725;28;20381;-57
2021/05/04 05:30:01;;;;;;;67.18;62.40;;;15.70;99.90;;;;;;5075653;28;20138;-58
2021/05/04 05:32:29;;;;;;;62.22;57.72;;;15.70;99.90;;;;;;5075685;28;20020;-57
2021/05/04 05:34:56;;;;;;;63.97;59.42;;;15.70;99.90;;;;;;5075608;28;20024;-58
2021/05/04 05:37:23;;;;;;;62.80;58.30;;;15.70;99.90;;;;;;5075580;28;20098;-58
2021/05/04 05:39:51;;;;;;;63.13;58.53;;;15.70;99.90;;;;;;5075496;28;20032;-57
2021/05/04 05:42:18;;;;;;;64.93;59.67;;;15.70;99.90;;;;;;5075281;28;20102;-58
2021/05/04 05:44:46;;;;;;;64.18;59.25;;;15.80;99.90;;;;;;5075358;28;20097;-57
2021/05/04 05:47:13;;;;;;;62.42;57.40;;;15.80;99.90;;;;;;5075557;28;20041;-58
2021/05/04 05:49:41;;;;;;;65.00;59.95;;;15.80;99.90;;;;;;5075306;28;20385;-58
2021/05/04 05:52:09;;;;;;;63.55;58.42;;;15.80;99.90;;;;;;5075171;28;20040;-58
2021/05/04 05:54:37;;;;;;;61.60;56.72;;;15.90;99.90;;;;;;5075102;28;20059;-58
2021/05/04 05:57:05;;;;;;;60.80;55.90;;;16.00;99.90;;;;;;5075611;28;20028;-58
2021/05/04 05:59:32;;;;;;;61.38;56.75;;;16.10;99.90;;;;;;5075081;28;20445;-58
2021/05/04 06:02:00;;;;;;;61.78;57.17;;;16.10;99.90;;;;;;5074944;28;20025;-58
2021/05/04 06:04:27;;;;;;;62.63;57.25;;;16.10;99.90;;;;;;5074835;28;20489;-59
2021/05/04 06:06:54;;;;;;;61.03;56.10;;;16.20;99.90;;;;;;5074667;28;20024;-59
2021/05/04 06:09:22;;;;;;;60.10;55.40;;;16.10;99.90;;;;;;5074454;28;20156;-59
2021/05/04 06:11:49;;;;;;;61.85;57.10;;;16.10;99.90;;;;;;5074970;28;20044;-59
2021/05/04 06:14:17;;;;;;;62.92;58.05;;;16.10;99.90;;;;;;5074893;28;20079;-58
2021/05/04 06:16:44;;;;;;;62.92;58.25;;;16.20;99.90;;;;;;5074795;28;20474;-59
2021/05/04 06:19:12;;;;;;;61.60;57.05;;;16.20;99.90;;;;;;5074749;28;20051;-58
2021/05/04 06:21:40;;;;;;;58.22;53.83;;;16.20;99.90;;;;;;5073300;28;20389;-59
2021/05/04 06:24:08;;;;;;;61.25;56.88;;;16.20;99.90;;;;;;5074613;28;20021;-59
2021/05/04 06:26:38;;;;;;;60.17;55.67;;;16.10;99.90;;;;;;5074502;28;20052;-59
2021/05/04 06:29:07;;;;;;;57.92;53.63;;;16.00;99.90;;;;;;5074677;28;20020;-59
2021/05/04 06:31:35;;;;;;;62.17;57.63;;;15.90;99.90;;;;;;5073565;28;20059;-59
2021/05/04 06:34:05;;;;;;;59.80;55.40;;;15.80;99.90;;;;;;5073246;28;20080;-58
2021/05/04 06:36:33;;;;;;;59.53;55.13;;;15.80;99.90;;;;;;5074417;28;20496;-59
2021/05/04 06:39:00;;;;;;;59.20;54.90;;;15.80;99.90;;;;;;5074396;28;20029;-58
2021/05/04 06:41:34;;;;;;;58.55;54.25;;;15.70;99.90;;;;;;5074127;28;20025;-58
2021/05/04 06:44:03;;;;;;;59.15;54.75;;;15.70;99.90;;;;;;5073375;28;20063;-58
2021/05/04 06:46:31;;;;;;;58.33;53.90;;;15.70;99.90;;;;;;5074268;28;20016;-57
2021/05/04 06:49:00;;;;;;;60.58;56.20;;;15.70;99.90;;;;;;5074239;28;20123;-58
2021/05/04 06:51:28;;;;;;;64.65;59.75;;;15.70;99.90;;;;;;5074151;28;20389;-58
2021/05/04 06:53:55;;;;;;;62.67;57.88;;;15.60;99.90;;;;;;5074265;28;20071;-58
2021/05/04 06:56:24;;;;;;;64.30;59.53;;;15.60;99.90;;;;;;5073718;28;20078;-58
2021/05/04 06:58:52;;;;;;;63.60;58.70;;;15.60;99.90;;;;;;5073736;28;20082;-58
2021/05/04 07:01:19;;;;;;;65.05;60.22;;;15.60;99.90;;;;;;5073775;28;20043;-59
2021/05/04 07:03:46;;;;;;;65.32;60.58;;;15.50;99.90;;;;;;5073610;28;20093;-58
2021/05/04 07:06:14;;;;;;;63.58;58.78;;;15.50;99.90;;;;;;5073685;28;20417;-58
2021/05/04 07:08:42;;;;;;;62.58;57.92;;;15.50;99.90;;;;;;5073794;28;20020;-59
2021/05/04 07:11:10;;;;;;;62.00;57.28;;;15.50;99.90;;;;;;5073688;28;20032;-59
2021/05/04 07:13:37;;;;;;;62.28;57.75;;;15.50;99.90;;;;;;5073571;28;20017;-59
2021/05/04 07:16:05;;;;;;;63.65;58.75;;;15.50;99.90;;;;;;5073640;28;20024;-59
2021/05/04 07:18:32;;;;;;;64.75;59.42;;;15.50;99.90;;;;;;5073611;28;20031;-59
2021/05/04 07:21:05;;;;;;;63.38;58.38;;;15.50;99.90;;;;;;5072119;28;20227;-58
2021/05/04 07:23:34;;;;;;;63.05;58.15;;;15.50;99.90;;;;;;5073606;28;20377;-59
2021/05/04 07:26:01;;;;;;;62.45;57.78;;;15.50;99.90;;;;;;5073428;28;20490;-59
2021/05/04 07:28:29;;;;;;;62.30;57.42;;;15.50;99.90;;;;;;5073467;28;20106;-60
2021/05/04 07:30:56;;;;;;;60.83;56.13;;;15.50;99.90;;;;;;5073270;28;20580;-60
2021/05/04 07:33:24;;;;;;;56.67;52.25;;;15.50;99.90;;;;;;5073309;28;20477;-61
2021/05/04 07:35:53;;;;;;;63.13;58.40;;;15.40;99.90;;;;;;5073234;28;20103;-60
2021/05/04 07:38:21;;;;;;;57.22;52.85;;;15.40;99.90;;;;;;5073524;28;20047;-60
2021/05/04 07:40:48;;;;;;;59.47;54.92;;;15.30;99.90;;;;;;5073248;28;20024;-59
2021/05/04 07:43:15;;;;;;;60.03;55.40;;;15.30;99.90;;;;;;5072992;28;20047;-59
2021/05/04 07:45:43;;;;;;;58.13;53.60;;;15.30;99.90;;;;;;5073139;28;20362;-60
2021/05/04 07:48:12;;;;;;;57.35;52.83;;;15.30;99.90;;;;;;5073168;28;20020;-60
2021/05/04 07:50:39;;;;;;;57.70;53.20;;;15.30;99.90;;;;;;5073302;28;20496;-60
2021/05/04 07:53:07;;;;;;;56.70;52.30;;;15.30;99.90;;;;;;5073221;28;20035;-60
2021/05/04 07:55:34;;;;;;;54.10;49.90;;;15.30;99.90;;;;;;5073059;28;20024;-60
2021/05/04 07:58:02;;;;;;;55.25;51.05;;;15.30;99.90;;;;;;5073059;28;20099;-61
2021/05/04 08:00:29;;;;;;;56.20;51.67;;;15.30;99.90;;;;;;5073094;28;20055;-60
2021/05/04 08:02:57;;;;;;;57.92;53.05;;;15.20;99.90;;;;;;5072869;28;20020;-60
2021/05/04 08:05:24;;;;;;;57.33;52.90;;;15.20;99.90;;;;;;5072951;28;20081;-60
2021/05/04 08:07:51;;;;;;;59.08;54.58;;;15.20;99.90;;;;;;5072997;28;20492;-59
2021/05/04 08:10:22;;;;;;;57.38;52.78;;;15.20;99.90;;;;;;5072821;28;20027;-64
2021/05/04 08:12:49;;;;;;;61.88;57.10;;;15.20;99.90;;;;;;5073118;28;20075;-65
2021/05/04 08:15:22;;;;;;;60.65;55.95;;;15.20;99.90;;;;;;5073247;28;20029;-64
2021/05/04 08:17:56;;;;;;;60.40;55.72;;;15.20;99.90;;;;;;5072948;28;20491;-63
2021/05/04 08:21:05;;;;;;;62.10;57.40;;;15.20;99.90;;;;;;5073037;28;20021;-63
2021/05/04 08:40:40;;;;;;;59.08;54.20;;;15.20;99.90;;;;;;4947459;28;20052;-60
2021/05/04 08:43:07;;;;;;;59.08;54.10;;;15.20;99.90;;;;;;5014621;28;20458;-59
2021/05/04 08:45:35;;;;;;;60.17;55.38;;;15.20;99.90;;;;;;5062856;28;20077;-59
2021/05/04 08:48:04;;;;;;;58.92;54.08;;;15.20;99.90;;;;;;5076476;28;20052;-60
2021/05/04 08:50:34;;;;;;;59.60;54.90;;;15.20;99.90;;;;;;5076477;28;20017;-59
2021/05/04 08:53:02;;;;;;;61.00;56.10;;;15.30;99.90;;;;;;5076370;28;20044;-59
2021/05/04 08:55:29;;;;;;;63.38;58.22;;;15.20;99.90;;;;;;5076300;28;20477;-59
2021/05/04 08:57:57;;;;;;;63.15;58.05;;;15.20;99.90;;;;;;5076374;28;20027;-57
2021/05/04 09:00:24;;;;;;;62.30;57.30;;;15.20;99.90;;;;;;5076232;28;20025;-55
2021/05/04 09:03:03;;;;;;;63.35;58.33;;;15.20;99.90;;;;;;5076165;28;20023;-60
2021/05/04 09:05:41;;;;;;;68.03;63.03;;;15.20;99.90;;;;;;5076184;28;20384;-60
2021/05/04 09:08:41;;;;;;;65.43;60.35;;;15.10;99.90;;;;;;5076027;28;20037;-58
2021/05/04 09:16:35;;;;;;;65.88;60.67;;;15.10;99.90;;;;;;5075994;28;20483;-57
2021/05/04 09:19:19;;;;;;;66.95;61.63;;;15.10;99.90;;;;;;5075844;28;20385;-58
2021/05/04 09:21:47;;;;;;;63.88;58.25;;;15.10;99.90;;;;;;5075768;28;20050;-58
2021/05/04 09:24:39;;;;;;;66.90;61.70;;;15.10;99.90;;;;;;5075717;28;20016;-59
2021/05/04 09:27:09;;;;;;;66.55;61.03;;;15.00;99.90;;;;;;5074519;28;20029;-58
2021/05/04 09:29:40;;;;;;;67.30;61.63;;;15.00;99.90;;;;;;5075575;28;20028;-58
2021/05/04 09:32:22;;;;;;;67.90;62.28;;;15.10;99.90;;;;;;5075798;28;20099;-58
2021/05/04 09:34:56;;;;;;;68.95;63.17;;;15.10;99.90;;;;;;5075799;28;20088;-59
2021/05/04 09:37:29;;;;;;;71.25;65.10;;;15.10;99.90;;;;;;5075556;28;20032;-60
2021/05/04 09:40:17;;;;;;;72.68;66.43;;;15.10;99.90;;;;;;5075582;28;20107;-58
2021/05/04 09:42:45;;;;;;;70.63;64.63;;;15.10;99.90;;;;;;5074156;28;20040;-59
2021/05/04 09:45:26;;;;;;;73.95;67.82;;;15.00;99.90;;;;;;5075371;28;20431;-59
2021/05/04 09:48:14;;;;;;;76.38;69.75;;;15.00;99.90;;;;;;5075309;28;20152;-59
2021/05/04 09:50:56;;;;;;;74.53;68.03;;;15.00;99.90;;;;;;5075306;28;20069;-62
2021/05/04 09:53:28;;;;;;;75.93;69.20;;;15.00;99.90;;;;;;5075465;28;20031;-63
2021/05/04 09:55:59;;;;;;;75.70;69.20;;;15.00;99.90;;;;;;5074151;28;20029;-63
2021/05/04 09:58:33;;;;;;;;;;;14.90;99.90;;;;;;5074411;28;20561;-63
2021/05/04 10:01:00;;;;;;;77.65;71.55;;;14.90;99.90;;;;;;5075157;28;20260;-63
2021/05/04 10:03:29;;;;;;;79.68;72.72;;;14.90;99.90;;;;;;5075008;28;20024;-64
2021/05/04 10:06:00;;;;;;;76.95;70.78;;;14.90;99.90;;;;;;5075078;28;20024;-63
2021/05/04 10:08:28;;;;;;;73.05;67.05;;;14.90;99.90;;;;;;5075023;28;20031;-63
2021/05/04 10:11:03;;;;;;;75.18;69.07;;;14.90;99.90;;;;;;5074995;28;20032;-62
2021/05/04 10:13:33;;;;;;;72.53;66.72;;;14.90;99.90;;;;;;5073624;28;20037;-63
2021/05/04 10:16:01;;;;;;;70.90;65.20;;;14.90;99.90;;;;;;5074901;28;20063;-62
2021/05/04 10:18:30;;;;;;;72.57;66.65;;;14.80;99.90;;;;;;5073441;28;20033;-61
2021/05/04 10:21:00;;;;;;;73.85;67.88;;;14.90;99.90;;;;;;5074866;28;20029;-62
2021/05/04 10:23:29;;;;;;;75.88;69.60;;;14.90;99.90;;;;;;5074816;28;20024;-64
2021/05/04 10:26:15;;;;;;;77.60;71.45;;;14.90;99.90;;;;;;5074670;28;20017;-64
2021/05/04 10:28:54;;;;;;;71.57;65.68;;;14.90;99.90;;;;;;5074804;28;20029;-64
2021/05/04 10:31:35;;;;;;;75.05;69.32;;;14.90;99.90;;;;;;5074570;28;20021;-62
2021/05/04 10:34:20;;;;;;;;;;;14.80;99.90;;;;;;5073749;28;20108;-61
2021/05/04 10:36:47;;;;;;;69.32;63.60;;;14.90;99.90;;;;;;5074718;28;19999;-64
2021/05/04 10:39:32;;;;;;;68.32;62.75;;;14.90;99.90;;;;;;5074572;28;20534;-64
2021/05/04 10:42:00;;;;;;;69.32;63.45;;;14.90;99.90;;;;;;5074424;28;20045;-64
2021/05/04 10:44:28;;;;;;;66.65;60.85;;;14.90;99.90;;;;;;5072959;28;20111;-63
2021/05/04 10:46:57;;;;;;;66.97;61.33;;;14.90;99.90;;;;;;5074338;28;20024;-64
2021/05/04 10:49:57;;;;;;;67.30;61.58;;;14.90;99.90;;;;;;5074188;28;20021;-63
2021/05/04 10:52:54;;;;;;;65.90;60.35;;;14.90;99.90;;;;;;5069610;28;20124;-64
2021/05/04 10:55:24;;;;;;;67.88;61.58;;;14.90;99.90;;;;;;5074075;28;20021;-64
2021/05/04 10:58:09;;;;;;;68.75;62.83;;;14.90;99.90;;;;;;5074139;28;20029;-64
2021/05/04 11:01:01;;;;;;;70.18;64.22;;;14.90;99.90;;;;;;5074050;28;20028;-64
2021/05/04 11:03:31;;;;;;;70.82;64.82;;;15.00;99.90;;;;;;5073936;28;20032;-64
2021/05/04 11:06:06;;;;;;;74.25;67.75;;;15.00;99.90;;;;;;5074236;28;20024;-62
2021/05/04 11:11:33;;;;;;;71.03;65.03;;;15.00;99.90;;;;;;5073859;28;20028;-64
2021/05/04 11:14:07;;;;;;;71.68;65.88;;;14.90;99.90;;;;;;5073902;28;20103;-64
2021/05/04 11:16:47;;;;;;;74.18;67.97;;;15.00;99.90;;;;;;5073737;28;20108;-63
2021/05/04 11:19:29;;;;;;;71.75;65.85;;;14.90;99.90;;;;;;5073850;28;20024;-61
2021/05/04 11:22:00;;;;;;;73.22;67.25;;;15.00;99.90;;;;;;5073610;28;20099;-61
2021/05/04 11:24:30;;;;;;;76.20;70.13;;;15.00;99.90;;;;;;5073499;28;20028;-58
2021/05/04 11:27:00;;;;;;;77.22;70.80;;;15.00;99.90;;;;;;5073488;28;20374;-58
2021/05/04 11:29:33;;;;;;;72.32;66.50;;;15.00;99.90;;;;;;5073657;28;20021;-57
2021/05/04 11:32:11;;;;;;;74.82;68.63;;;15.00;99.90;;;;;;5073542;28;20008;-58
2021/05/04 11:34:45;;;;;;;78.32;71.75;;;14.90;99.90;;;;;;5073411;28;20421;-58
2021/05/04 11:37:27;;;;;;;77.50;71.15;;;14.90;99.90;;;;;;5073387;28;20100;-58
2021/05/04 11:39:58;;;;;;;76.03;69.82;;;14.80;99.90;;;;;;5073388;28;20090;-61
2021/05/04 11:42:45;;;;;;;75.13;68.90;;;14.80;99.90;;;;;;5073196;28;20036;-60
2021/05/04 11:45:17;;;;;;;81.80;75.38;;;14.90;99.90;;;;;;5073374;28;20062;-64
2021/05/04 11:47:46;;;;;;;76.85;70.47;;;14.90;99.90;;;;;;5071821;28;20028;-62
2021/05/04 11:50:17;;;;;;;74.00;67.80;;;14.80;99.90;;;;;;5072243;28;20413;-64
2021/05/04 11:52:56;;;;;;;79.32;72.32;;;14.90;99.90;;;;;;5073198;28;20470;-63
2021/05/04 11:55:51;;;;;;;79.72;72.97;;;14.90;99.90;;;;;;5073254;28;20020;-63
2021/05/04 11:58:24;;;;;;;78.88;72.20;;;14.90;99.90;;;;;;5073250;28;20485;-63
2021/05/04 12:01:06;;;;;;;79.13;72.78;;;14.90;99.90;;;;;;5073249;28;20389;-64
2021/05/04 12:03:34;;;;;;;79.43;72.93;;;14.80;99.90;;;;;;5072971;28;20032;-62
2021/05/04 12:06:04;;;;;;;79.10;72.57;;;14.90;99.90;;;;;;5072387;28;20017;-63
2021/05/04 12:08:32;;;;;;;76.87;70.70;;;14.90;99.90;;;;;;5071746;28;20021;-63
2021/05/04 12:10:59;;;;;;;79.70;73.38;;;14.80;99.90;;;;;;5073169;28;20017;-63
2021/05/04 12:13:27;;;;;;;79.47;73.20;;;14.80;99.90;;;;;;5073055;28;20020;-63
2021/05/04 12:15:57;;;;;;;83.07;76.47;;;14.80;99.90;;;;;;5073071;28;20073;-64
2021/05/04 12:18:28;;;;;;;82.05;75.68;;;14.80;99.90;;;;;;5072183;28;20035;-62
2021/05/04 12:20:55;;;;;;;;;;;14.80;99.90;;;;;;5073543;28;20043;-62
2021/05/04 12:23:32;;;;;;;85.68;78.97;;;14.80;99.90;;;;;;5072844;28;20365;-63
2021/05/04 12:26:06;;;;;;;85.00;77.85;;;14.80;99.90;;;;;;5073024;28;20024;-62
2021/05/04 12:28:47;;;;;;;82.72;75.97;;;14.80;99.90;;;;;;5073041;28;20017;-62
2021/05/04 12:31:18;;;;;;;85.20;78.65;;;14.80;99.90;;;;;;5072946;28;20028;-63
2021/05/04 12:33:48;;;;;;;86.82;79.78;;;14.80;99.90;;;;;;5073242;28;20032;-62
2021/05/04 12:36:32;;;;;;;85.22;78.30;;;14.80;99.90;;;;;;5072854;28;20058;-62
2021/05/04 12:39:02;;;;;;;81.15;74.47;;;14.70;99.90;;;;;;5073172;28;20025;-63
2021/05/04 12:41:36;;;;;;;86.72;79.95;;;14.70;99.90;;;;;;5072704;28;20078;-63
2021/05/04 12:44:22;;;;;;;85.57;78.97;;;14.70;99.90;;;;;;5072803;28;20112;-62
2021/05/04 12:46:53;;;;;;;81.32;74.93;;;14.60;99.90;;;;;;5072677;28;20017;-61
2021/05/04 12:49:32;;;;;;;77.47;71.28;;;14.60;99.90;;;;;;5072750;28;20024;-62
2021/05/04 12:52:07;;;;;;;85.72;78.90;;;14.60;99.90;;;;;;5073004;28;20025;-61
2021/05/04 12:54:37;;;;;;;79.75;73.32;;;14.60;99.90;;;;;;5072910;28;20031;-62
2021/05/04 12:57:27;;;;;;;80.23;73.67;;;14.60;99.90;;;;;;5072745;28;20029;-62
2021/05/04 12:59:56;;;;;;;83.20;76.90;;;14.60;99.90;;;;;;5071356;28;20035;-63
2021/05/04 13:02:25;;;;;;;86.03;79.70;;;14.60;99.90;;;;;;5072522;28;20389;-63
2021/05/04 13:05:05;;;;;;;81.47;75.15;;;14.50;99.90;;;;;;5072487;28;20031;-61
2021/05/04 13:07:46;;;;;;;76.72;70.85;;;14.60;99.90;;;;;;5072614;28;20016;-63